• Join FlightAware (Why Join?)
  • Login
  • US Flag 
04:05PM EDT


 

Airport Tracker/Info


-or-


 

Live Flight TrackerFlight Track Log ✈ WIG7417 ✈ 06-Aug-2013 ✈ KPBG - KSYR

Flight Track Log - Related Links

Times and Time Zones

All times are in EDT time to prevent confusion due to time zone crossing. See the WIG7417 flight status page for this flight to view local times or setup timezone preferences in your user account.

Time Position Orientation Groundspeed Altitude Reporting Facility
EDT Latitude Longitude Course Direction KTS MPH feet Rate Location/Type
07:36PM 44.6761 -73.6136 235° Southwest 119 137 4,100  Level Boston Center
07:37PM 44.6550 -73.6481 229° Southwest 119 137 4,900 840 Climbing Boston Center
07:38PM 44.6358 -73.6800 230° Southwest 119 137 5,800 840 Climbing Boston Center
07:39PM 44.5210 -73.6748 235° Southwest  Level FlightAware Approximate
07:39PM 44.6147 -73.7144 229° Southwest 119 137 6,700  Level Boston Center
07:40PM 44.5022 -73.7124 235° Southwest  Level FlightAware Approximate
07:40PM 44.5936 -73.7461 227° Southwest 119 137 7,400  Level Boston Center
07:41PM 44.4834 -73.7500 235° Southwest  Level FlightAware Approximate
07:41PM 44.5744 -73.7778 230° Southwest 119 137 8,200  Level Boston Center
07:42PM 44.4646 -73.7876 235° Southwest  Level FlightAware Approximate
07:42PM 44.5553 -73.8122 232° Southwest 119 137 9,000  Level Boston Center
07:43PM 44.5342 -73.8436 227° Southwest 119 137 9,800 540 Climbing Boston Center
07:44PM 44.5106 -73.8839 231° Southwest 119 137 10,100 120 Climbing Boston Center
07:45PM 44.4850 -73.9297 232° Southwest 143 165 10,100  Level Boston Center
07:46PM 44.4575 -73.9728 228° Southwest 150 173 10,100  Level Boston Center
07:47PM 44.4297 -74.0158 228° Southwest 155 178 10,100  Level Boston Center
07:48PM 44.4064 -74.0558 231° Southwest 155 178 10,100  Level Boston Center
07:49PM 44.3786 -74.0986 228° Southwest 155 178 10,100 -60 Level Boston Center
07:50PM 44.3531 -74.1386 228° Southwest 155 178 10,000 -60 Descending Boston Center
07:51PM 44.3272 -74.1814 230° Southwest 155 178 10,000  Level Boston Center
07:52PM 44.2997 -74.2239 228° Southwest 155 178 10,000  Level Boston Center
07:53PM 44.2739 -74.2667 230° Southwest 155 178 10,000  Level Boston Center
07:54PM 44.2483 -74.3094 230° Southwest 155 178 10,000  Level Boston Center
07:55PM 44.2267 -74.3464 231° Southwest 160 184 10,000  Level Boston Center
07:56PM 44.1947 -74.3975 229° Southwest 160 184 10,000  Level Boston Center
07:57PM 44.1667 -74.4428 229° Southwest 160 184 10,000  Level Boston Center
07:58PM 44.1389 -74.4883 230° Southwest 160 184 10,000 -60 Level Boston Center
07:59PM 44.1131 -74.5308 230° Southwest 160 184 9,900 -60 Descending Boston Center
08:00PM 44.0853 -74.5761 230° Southwest 160 184 9,900  Level Boston Center
08:01PM 44.0575 -74.6156 226° Southwest 155 178 9,900  Level Boston Center
08:02PM 44.0314 -74.6608 231° Southwest 155 178 9,900  Level Boston Center
08:03PM 44.0056 -74.7089 233° Southwest 160 184 9,900  Level Boston Center
08:04PM 43.9778 -74.7481 225° Southwest 154 177 9,900  Level Boston Center
08:05PM 43.9497 -74.7933 229° Southwest 154 177 10,000  Climbing Boston Center
08:06PM 43.9217 -74.8383 229° Southwest 160 184 10,000 -60 Level Boston Center
08:07PM 43.8936 -74.8833 229° Southwest 160 184 9,900  Descending Boston Center
08:08PM 43.8675 -74.9283 231° Southwest 160 184 10,000  Climbing Boston Center
08:09PM 43.8503 -74.9536 227° Southwest 155 178 9,900 -60 Descending Boston Center
08:10PM 43.8114 -75.0181 230° Southwest 160 184 9,900  Level Boston Center
08:11PM 43.7833 -75.0628 229° Southwest 160 184 9,900  Level Boston Center
08:11PM 43.7833 -75.0628 229° Southwest 154 177 9,900  Level Boston Center
08:12PM 43.7553 -75.1047 227° Southwest 160 184 9,900  Level Boston Center
08:13PM 43.7269 -75.1581 234° Southwest 155 178 10,000  Climbing Boston Center
08:14PM 43.6989 -75.1969 225° Southwest 160 184 9,900 -60 Descending Boston Center
08:15PM 43.6728 -75.2389 229° Southwest 160 184 9,900  Level Boston Center
08:16PM 43.6447 -75.2864 231° Southwest 160 184 9,900  Level Boston Center
08:17PM 43.6164 -75.3311 229° Southwest 160 184 9,900  Level Boston Center
08:18PM 43.5883 -75.3728 227° Southwest 160 184 9,900 -600 Level Boston Center
08:19PM 43.5617 -75.4286 237° Southwest 166 191 8,800 -1,080 Descending Boston Center
08:20PM 43.5286 -75.4986 237° Southwest 186 214 7,600 -900 Descending Boston Center
08:21PM 43.5067 -75.5406 234° Southwest 179 206 7,100 -660 Descending Boston Center
08:22PM 43.4803 -75.5936 236° Southwest 179 206 6,400 -660 Descending Boston Center
08:23PM 43.4517 -75.6436 232° Southwest 179 206 5,900 -180 Descending Boston Center
08:25PM 43.4186 -75.7047 233° Southwest 144 166 6,000  Climbing Boston Center
08:26PM 43.3967 -75.7492 236° Southwest 140 161 6,000  Level Boston Center
08:27PM 43.3722 -75.7964 235° Southwest 145 167 6,000  Level Boston Center
08:28PM 43.3500 -75.8439 237° Southwest 144 166 6,000  Level Boston Center
08:29PM 43.3278 -75.8883 236° Southwest 142 163 6,000  Level Boston Center
08:30PM 43.3056 -75.9328 236° Southwest 142 163 6,000 -240 Level Boston Center
08:31PM 43.2792 -75.9769 231° Southwest 145 167 5,600 -720 Descending Boston Center
08:32PM 43.2606 -76.0414 248° West 174 200 4,500 -1,080 Descending Boston Center
08:33PM 43.2442 -76.1031 250° West 163 188 3,500 -780 Descending Boston Center
08:34PM 43.2278 -76.1564 247° West 157 181 3,000 -240 Descending Boston Center
08:35PM 43.2031 -76.2089 237° Southwest 136 157 3,000 -120 Level Boston Center
08:36PM 43.1872 -76.2422 237° Southwest 128 147 2,800 -360 Descending Boston Center
08:37PM 43.1536 -76.2514 191° South 139 160 2,400 -540 Descending Boston Center
08:38PM 43.1169 -76.2264 154° Southeast 120 138 1,800 -540 Descending Boston Center
08:39PM 43.1058 -76.1886 112° Southeast 127 146 1,400 -480 Descending Boston Center